Time;durP1;ratioP1;P1;durP2;ratioP2;P2;SDS_P1;SDS_P2;PMS_P1;PMS_P2;Temp;Humidity;BMP_temperature;BMP_pressure;BME280_temperature;BME280_humidity;BME280_pressure;Samples;Min_cycle;Max_cycle;Signal;HPM_P1;HPM_P2
2021/05/14 00:02:05;;;;;;;4.20;1.90;;;9.70;99.90;;;;;;5055480;28;20032;-84
2021/05/14 00:04:31;;;;;;;1.85;1.10;;;9.70;99.90;;;;;;5055396;28;20536;-83
2021/05/14 00:06:57;;;;;;;2.28;1.40;;;9.60;99.90;;;;;;5037507;28;20021;-83
2021/05/14 00:09:22;;;;;;;2.72;1.85;;;9.60;99.90;;;;;;5037611;28;20151;-83
2021/05/14 00:11:48;;;;;;;3.25;1.70;;;9.90;99.90;;;;;;5055613;28;20473;-83
2021/05/14 00:14:14;;;;;;;2.55;1.30;;;9.80;99.90;;;;;;5037633;28;20033;-83
2021/05/14 00:16:40;;;;;;;4.28;1.98;;;9.90;99.90;;;;;;5037381;28;20476;-83
2021/05/14 00:19:06;;;;;;;6.78;1.95;;;10.00;99.90;;;;;;5037279;28;20107;-83
2021/05/14 00:21:33;;;;;;;1.10;0.80;;;10.00;99.90;;;;;;5055162;28;20027;-83
2021/05/14 00:23:59;;;;;;;3.08;1.50;;;9.70;99.90;;;;;;5037170;28;20024;-83
2021/05/14 00:26:25;;;;;;;2.65;1.40;;;9.50;99.90;;;;;;5054987;28;20112;-83
2021/05/14 00:28:51;;;;;;;3.03;1.83;;;9.50;99.90;;;;;;5055032;28;20422;-83
2021/05/14 00:31:17;;;;;;;1.50;1.15;;;9.60;99.90;;;;;;5055006;28;20024;-83
2021/05/14 00:33:43;;;;;;;7.68;1.33;;;9.40;99.90;;;;;;5054910;28;20017;-83
2021/05/14 00:36:09;;;;;;;3.13;1.45;;;9.30;99.90;;;;;;5054913;28;20032;-83
2021/05/14 00:38:35;;;;;;;2.20;1.10;;;9.30;99.90;;;;;;5054795;28;20028;-83
2021/05/14 00:41:01;;;;;;;2.95;1.50;;;9.20;99.90;;;;;;5020623;28;20053;-83
2021/05/14 00:43:27;;;;;;;3.92;1.10;;;9.10;99.90;;;;;;5036869;28;20079;-83
2021/05/14 00:45:54;;;;;;;2.00;1.13;;;9.00;99.90;;;;;;5054552;28;20032;-83
2021/05/14 00:48:20;;;;;;;1.92;1.02;;;8.90;99.90;;;;;;5036543;28;20503;-83
2021/05/14 00:50:45;;;;;;;6.22;1.02;;;9.00;99.90;;;;;;5055204;28;20099;-83
2021/05/14 00:53:11;;;;;;;2.80;1.25;;;9.00;99.90;;;;;;5036731;28;20017;-83
2021/05/14 00:55:37;;;;;;;1.67;1.02;;;9.00;99.90;;;;;;5053803;28;20100;-83
2021/05/14 00:58:03;;;;;;;2.03;1.30;;;8.90;99.90;;;;;;5054467;28;20029;-83
2021/05/14 01:00:29;;;;;;;2.10;1.30;;;9.00;99.90;;;;;;5054353;28;20025;-83
2021/05/14 01:02:55;;;;;;;4.90;1.42;;;9.10;99.90;;;;;;5054656;28;20024;-83
2021/05/14 01:05:23;;;;;;;2.45;1.20;;;9.10;99.90;;;;;;5054260;28;20024;-83
2021/05/14 01:07:51;;;;;;;2.25;1.25;;;9.00;99.90;;;;;;5036333;28;20116;-83
2021/05/14 01:10:18;;;;;;;2.45;1.30;;;9.00;99.90;;;;;;5036337;28;20059;-83
2021/05/14 01:12:44;;;;;;;2.67;1.33;;;9.10;99.90;;;;;;5036290;28;20017;-83
2021/05/14 01:15:11;;;;;;;2.15;1.13;;;9.00;99.90;;;;;;5036293;28;20052;-83
2021/05/14 01:17:37;;;;;;;1.60;1.15;;;9.00;99.90;;;;;;5054111;28;20029;-83
2021/05/14 01:20:04;;;;;;;2.58;1.10;;;8.90;99.90;;;;;;5036107;28;20025;-83
2021/05/14 01:22:30;;;;;;;4.55;1.17;;;8.80;99.90;;;;;;5053945;28;20029;-83
2021/05/14 01:24:56;;;;;;;1.73;1.13;;;8.90;99.90;;;;;;5036104;28;20039;-83
2021/05/14 01:27:23;;;;;;;3.40;1.10;;;9.00;99.90;;;;;;5053955;28;20017;-84
2021/05/14 01:29:49;;;;;;;3.75;1.25;;;8.70;99.90;;;;;;5054160;28;20388;-83
2021/05/14 01:32:16;;;;;;;3.20;1.30;;;8.90;99.90;;;;;;5035888;28;20031;-83
2021/05/14 01:34:42;;;;;;;5.22;1.33;;;8.90;99.90;;;;;;5053759;28;20507;-83
2021/05/14 01:37:08;;;;;;;2.45;1.20;;;9.00;99.90;;;;;;5035913;28;20035;-83
2021/05/14 01:39:34;;;;;;;2.40;1.20;;;9.10;99.90;;;;;;5053707;28;20021;-83
2021/05/14 01:42:01;;;;;;;2.08;1.10;;;9.00;99.90;;;;;;5053634;28;20369;-83
2021/05/14 01:44:27;;;;;;;1.17;0.85;;;9.00;99.90;;;;;;5053545;28;20025;-83
2021/05/14 01:46:53;;;;;;;1.75;0.90;;;9.00;99.90;;;;;;5053773;28;20052;-83
2021/05/14 01:49:19;;;;;;;2.80;1.20;;;8.80;99.90;;;;;;5035639;28;20044;-83
2021/05/14 01:51:46;;;;;;;2.03;0.95;;;8.90;99.90;;;;;;5053853;28;20017;-83
2021/05/14 01:54:11;;;;;;;1.65;1.10;;;9.20;99.90;;;;;;5053498;28;20419;-83
2021/05/14 01:56:37;;;;;;;2.45;1.10;;;9.10;99.90;;;;;;5053494;28;20028;-83
2021/05/14 01:59:04;;;;;;;2.55;1.00;;;9.20;99.90;;;;;;5035508;28;20029;-83
2021/05/14 02:01:30;;;;;;;1.58;1.00;;;9.20;99.90;;;;;;5053402;28;20013;-83
2021/05/14 02:03:55;;;;;;;1.45;0.90;;;8.90;99.90;;;;;;5053386;28;20384;-83
2021/05/14 02:06:21;;;;;;;1.15;0.88;;;8.80;99.90;;;;;;5018852;28;20087;-84
2021/05/14 02:08:47;;;;;;;3.00;1.00;;;8.70;99.90;;;;;;5035315;28;20020;-83
2021/05/14 02:11:13;;;;;;;2.22;1.05;;;8.80;99.90;;;;;;5035443;28;20029;-83
2021/05/14 02:13:40;;;;;;;4.55;0.98;;;8.80;99.90;;;;;;5035378;28;20465;-83
2021/05/14 02:16:07;;;;;;;1.98;1.05;;;8.90;99.90;;;;;;5035340;28;20024;-83
2021/05/14 02:18:34;;;;;;;2.05;0.90;;;8.90;99.90;;;;;;5053481;28;20017;-83
2021/05/14 02:21:00;;;;;;;0.88;0.65;;;8.90;99.90;;;;;;5035319;28;20021;-83
2021/05/14 02:23:26;;;;;;;2.10;0.88;;;8.80;99.90;;;;;;5035251;28;20040;-83
2021/05/14 02:25:52;;;;;;;1.23;0.93;;;8.90;99.90;;;;;;5053059;28;20032;-84
2021/05/14 02:28:18;;;;;;;1.52;0.90;;;8.90;99.90;;;;;;5035166;28;20457;-83
2021/05/14 02:30:44;;;;;;;3.60;1.13;;;9.00;99.90;;;;;;5053110;28;20032;-84
2021/05/14 02:33:10;;;;;;;3.28;0.90;;;8.90;99.90;;;;;;5035206;28;20021;-83
2021/05/14 02:35:36;;;;;;;1.60;0.80;;;8.90;99.90;;;;;;5053046;28;20472;-83
2021/05/14 02:38:02;;;;;;;3.80;1.00;;;8.90;99.90;;;;;;5035117;28;20112;-83
2021/05/14 02:40:28;;;;;;;2.20;1.00;;;8.60;99.90;;;;;;5052980;28;20036;-83
2021/05/14 02:42:54;;;;;;;2.42;0.88;;;8.60;99.90;;;;;;5052930;28;20508;-83
2021/05/14 02:45:20;;;;;;;3.13;0.80;;;8.90;99.90;;;;;;5035020;28;20080;-83
2021/05/14 02:47:45;;;;;;;1.02;0.60;;;9.00;99.90;;;;;;5053380;28;20457;-83
2021/05/14 02:50:12;;;;;;;2.97;0.85;;;8.90;99.90;;;;;;5052742;28;20037;-83
2021/05/14 02:52:39;;;;;;;2.25;0.90;;;8.90;99.90;;;;;;5053066;28;20416;-83
2021/05/14 02:55:05;;;;;;;1.15;0.70;;;9.00;99.90;;;;;;5052842;28;20025;-83
2021/05/14 02:57:31;;;;;;;2.42;1.10;;;8.70;99.90;;;;;;5052826;28;20021;-83
2021/05/14 02:59:57;;;;;;;1.52;0.98;;;8.60;99.90;;;;;;5052796;28;20400;-83
2021/05/14 03:02:23;;;;;;;1.05;0.75;;;8.50;99.90;;;;;;5052810;28;20056;-83
2021/05/14 03:04:48;;;;;;;3.35;1.02;;;8.20;99.90;;;;;;5052696;28;20068;-83
2021/05/14 03:07:14;;;;;;;1.73;1.10;;;8.00;99.90;;;;;;5034910;28;20025;-84
2021/05/14 03:09:40;;;;;;;1.38;0.77;;;8.10;99.90;;;;;;5052968;28;20028;-83
2021/05/14 03:12:06;;;;;;;1.83;1.10;;;8.00;99.90;;;;;;5034889;28;20025;-83
2021/05/14 03:14:33;;;;;;;4.35;0.90;;;7.90;99.90;;;;;;5034882;28;20028;-83
2021/05/14 03:16:59;;;;;;;1.20;0.82;;;7.90;99.90;;;;;;5052673;28;20025;-83
2021/05/14 03:19:25;;;;;;;1.20;0.80;;;7.90;99.90;;;;;;5036109;28;20544;-84
2021/05/14 03:21:51;;;;;;;3.58;1.10;;;7.90;99.90;;;;;;5056345;28;20392;-83
2021/05/14 03:24:17;;;;;;;2.60;0.98;;;8.00;99.90;;;;;;5056472;28;20013;-84
2021/05/14 03:26:44;;;;;;;1.90;0.98;;;8.10;99.90;;;;;;5038300;28;20455;-83
2021/05/14 03:29:10;;;;;;;1.65;1.05;;;8.20;99.90;;;;;;5056188;28;20055;-83
2021/05/14 03:31:35;;;;;;;3.20;0.90;;;8.50;99.90;;;;;;5038300;28;20055;-83
2021/05/14 03:34:01;;;;;;;3.83;0.80;;;8.40;99.90;;;;;;5056369;28;20029;-83
2021/05/14 03:36:27;;;;;;;1.95;0.80;;;8.60;99.90;;;;;;5056014;28;20044;-83
2021/05/14 03:38:53;;;;;;;1.90;0.90;;;8.60;99.90;;;;;;5038166;28;20051;-84
2021/05/14 03:41:33;;;;;;;2.38;1.00;;;8.80;99.90;;;;;;5055903;28;20033;-84
2021/05/14 03:44:00;;;;;;;3.88;1.20;;;8.80;99.90;;;;;;5038021;28;20032;-84
2021/05/14 03:46:27;;;;;;;0.77;0.70;;;8.90;99.90;;;;;;5037849;28;20047;-83
2021/05/14 03:48:53;;;;;;;1.30;0.90;;;8.70;99.90;;;;;;5055636;28;20045;-84
2021/05/14 03:51:19;;;;;;;1.20;0.73;;;8.70;99.90;;;;;;5037857;28;20033;-83
2021/05/14 03:53:45;;;;;;;3.38;1.02;;;8.80;99.90;;;;;;5021397;28;20098;-83
2021/05/14 03:56:11;;;;;;;1.10;0.90;;;8.90;99.90;;;;;;5055707;28;20033;-84
2021/05/14 03:58:37;;;;;;;1.20;0.77;;;8.90;99.90;;;;;;5055618;28;20029;-84
2021/05/14 04:01:03;;;;;;;4.65;0.98;;;9.10;99.90;;;;;;5055531;28;20056;-84
2021/05/14 04:03:29;;;;;;;3.40;1.00;;;9.00;99.90;;;;;;5055536;28;20064;-83
2021/05/14 04:05:55;;;;;;;2.45;1.13;;;8.90;99.90;;;;;;5037464;28;20032;-84
2021/05/14 04:08:20;;;;;;;2.55;0.95;;;8.80;99.90;;;;;;5055405;28;20025;-83
2021/05/14 04:11:03;;;;;;;3.00;0.90;;;8.60;99.90;;;;;;5037522;28;20051;-83
2021/05/14 04:16:14;;;;;;;1.15;0.90;;;8.10;99.90;;;;;;5055907;28;20059;-83
2021/05/14 04:18:39;;;;;;;2.00;1.00;;;7.90;99.90;;;;;;5037344;28;20503;-84
2021/05/14 04:21:06;;;;;;;2.42;1.20;;;8.00;99.90;;;;;;5037384;28;20025;-83
2021/05/14 04:23:32;;;;;;;1.65;1.10;;;7.90;99.90;;;;;;5055070;28;20028;-83
2021/05/14 04:25:58;;;;;;;1.55;1.08;;;7.80;99.90;;;;;;5054985;28;20055;-83
2021/05/14 04:28:24;;;;;;;3.45;1.00;;;7.80;99.90;;;;;;5055015;28;20021;-83
2021/05/14 04:30:49;;;;;;;2.65;1.13;;;7.60;99.90;;;;;;5036097;28;20385;-84
2021/05/14 04:33:15;;;;;;;2.03;0.80;;;7.70;99.90;;;;;;5020599;28;20025;-83
2021/05/14 04:35:41;;;;;;;4.45;1.02;;;7.80;99.90;;;;;;5036942;28;20116;-84
2021/05/14 04:38:07;;;;;;;1.88;1.35;;;7.80;99.90;;;;;;5055070;28;20029;-83
2021/05/14 04:40:32;;;;;;;4.43;2.17;;;7.80;99.90;;;;;;5054827;28;20384;-83
2021/05/14 04:43:02;;;;;;;5.00;3.17;;;7.70;99.90;;;;;;5036858;28;20035;-83
2021/05/14 04:45:29;;;;;;;4.00;2.35;;;7.70;99.90;;;;;;5036750;28;20061;-84
2021/05/14 04:47:54;;;;;;;3.40;1.45;;;7.70;99.90;;;;;;5054632;28;20036;-84
2021/05/14 04:50:20;;;;;;;3.92;1.52;;;7.80;99.90;;;;;;5054493;28;20041;-84
2021/05/14 04:52:46;;;;;;;2.20;1.20;;;7.80;99.90;;;;;;5054551;28;20021;-84
2021/05/14 04:55:13;;;;;;;2.33;1.40;;;7.70;99.90;;;;;;5054487;28;20029;-84
2021/05/14 04:57:39;;;;;;;1.70;1.17;;;7.90;99.90;;;;;;5054456;28;20025;-84
2021/05/14 05:00:06;;;;;;;1.20;0.90;;;8.00;99.90;;;;;;5036592;28;20086;-84
2021/05/14 05:02:33;;;;;;;1.58;1.10;;;8.00;99.90;;;;;;5054380;28;20040;-84
2021/05/14 05:05:00;;;;;;;2.03;1.13;;;8.10;99.90;;;;;;5054262;28;20152;-84
2021/05/14 05:07:26;;;;;;;2.33;1.10;;;8.40;99.90;;;;;;5054283;28;20020;-84
2021/05/14 05:09:52;;;;;;;1.63;1.10;;;8.70;99.90;;;;;;5036410;28;20116;-84
2021/05/14 05:12:18;;;;;;;3.03;1.25;;;9.00;99.90;;;;;;5036238;28;20496;-84
2021/05/14 05:14:43;;;;;;;5.10;1.10;;;9.00;99.90;;;;;;5054185;28;20025;-84
2021/05/14 05:17:09;;;;;;;2.53;1.00;;;8.90;99.90;;;;;;5054132;28;20100;-84
2021/05/14 05:19:35;;;;;;;5.55;1.00;;;9.10;99.90;;;;;;5054028;28;20021;-84
2021/05/14 05:22:01;;;;;;;3.25;0.90;;;9.20;99.90;;;;;;5054037;28;20021;-84
2021/05/14 05:24:27;;;;;;;2.67;1.08;;;9.30;99.90;;;;;;5036073;28;20116;-84
2021/05/14 05:26:52;;;;;;;3.35;1.30;;;9.00;99.90;;;;;;5053971;28;20066;-84
2021/05/14 05:29:18;;;;;;;3.88;1.40;;;8.90;99.90;;;;;;5054162;28;20021;-84
2021/05/14 05:31:44;;;;;;;5.35;1.85;;;8.80;99.90;;;;;;5035997;28;20025;-84
2021/05/14 05:34:10;;;;;;;2.78;1.50;;;8.90;99.90;;;;;;5054013;28;20045;-84
2021/05/14 05:36:35;;;;;;;4.63;1.60;;;8.90;99.90;;;;;;5035893;28;20388;-84
2021/05/14 05:39:03;;;;;;;5.05;1.40;;;8.90;99.90;;;;;;5053755;28;20413;-84
2021/05/14 05:41:28;;;;;;;3.88;1.63;;;8.90;99.90;;;;;;5035668;28;20032;-84
2021/05/14 05:43:54;;;;;;;7.20;1.50;;;9.10;99.90;;;;;;5053593;28;20029;-84
2021/05/14 05:46:21;;;;;;;3.30;1.40;;;9.10;99.90;;;;;;5053305;28;20025;-84
2021/05/14 05:48:49;;;;;;;1.83;1.08;;;9.20;99.90;;;;;;5026970;28;20461;-84
2021/05/14 05:51:14;;;;;;;4.00;0.98;;;9.50;99.90;;;;;;5012654;28;20025;-84
2021/05/14 05:53:40;;;;;;;1.42;0.90;;;9.50;99.90;;;;;;5012559;28;20362;-84
2021/05/14 05:56:06;;;;;;;4.10;1.10;;;9.60;99.90;;;;;;5013885;28;20026;-84
2021/05/14 05:58:32;;;;;;;1.65;0.90;;;9.80;99.90;;;;;;5012529;28;20116;-84
2021/05/14 06:00:59;;;;;;;7.53;1.20;;;9.90;99.90;;;;;;5013794;28;20056;-84
2021/05/14 06:03:25;;;;;;;2.78;1.10;;;9.90;99.90;;;;;;5012504;28;20033;-84
2021/05/14 06:05:50;;;;;;;1.52;1.02;;;9.90;99.90;;;;;;5012339;28;20029;-84
2021/05/14 06:08:16;;;;;;;3.85;1.15;;;10.10;99.90;;;;;;5013917;28;20017;-84
2021/05/14 06:10:42;;;;;;;3.13;0.90;;;10.30;99.90;;;;;;5013681;28;20029;-84
2021/05/14 06:13:08;;;;;;;4.03;1.00;;;10.40;99.90;;;;;;5012309;28;20028;-84
2021/05/14 06:15:35;;;;;;;1.73;0.88;;;10.40;99.90;;;;;;5012344;28;20032;-84
2021/05/14 06:18:00;;;;;;;3.20;1.20;;;10.40;99.90;;;;;;5014237;28;20362;-84
2021/05/14 06:20:28;;;;;;;3.10;1.48;;;10.30;99.90;;;;;;5012270;28;20033;-84
2021/05/14 06:22:54;;;;;;;4.47;1.05;;;10.20;99.90;;;;;;5012212;28;20033;-84
2021/05/14 06:25:20;;;;;;;2.88;1.10;;;10.10;99.90;;;;;;5012163;28;20072;-84
2021/05/14 06:27:46;;;;;;;4.07;1.67;;;9.90;99.90;;;;;;5012454;28;20022;-84
2021/05/14 06:30:13;;;;;;;5.25;1.27;;;10.00;99.90;;;;;;5013432;28;20026;-84
2021/05/14 06:32:39;;;;;;;1.50;0.90;;;10.00;99.90;;;;;;5013671;28;20029;-84
2021/05/14 06:35:06;;;;;;;2.05;1.02;;;10.00;99.90;;;;;;5012147;28;20029;-84
2021/05/14 06:37:36;;;;;;;1.33;0.80;;;10.20;99.90;;;;;;5012116;28;20115;-84
2021/05/14 06:40:04;;;;;;;1.77;0.80;;;10.40;99.90;;;;;;5012104;28;20026;-83
2021/05/14 06:42:30;;;;;;;2.03;0.70;;;10.60;99.90;;;;;;5013362;28;20038;-82
2021/05/14 06:44:56;;;;;;;3.55;0.90;;;10.60;99.90;;;;;;5011976;28;20037;-83
2021/05/14 06:47:21;;;;;;;1.52;0.90;;;10.60;99.90;;;;;;5013257;28;20037;-84
2021/05/14 06:49:47;;;;;;;1.50;0.95;;;10.60;99.90;;;;;;5011863;28;20108;-83
2021/05/14 06:52:13;;;;;;;2.42;0.90;;;10.70;99.90;;;;;;5013263;28;20026;-84
2021/05/14 06:54:39;;;;;;;3.22;1.02;;;10.60;99.90;;;;;;5015280;28;20029;-84
2021/05/14 06:57:04;;;;;;;2.50;1.05;;;10.70;99.90;;;;;;5017371;28;20093;-83
2021/05/14 06:59:30;;;;;;;1.70;1.00;;;10.80;99.90;;;;;;5017052;28;20124;-84
2021/05/14 07:01:56;;;;;;;1.33;0.60;;;11.10;99.90;;;;;;5016091;28;20025;-83
2021/05/14 07:04:22;;;;;;;1.98;0.70;;;11.20;99.90;;;;;;5017193;28;20524;-83
2021/05/14 07:06:48;;;;;;;1.45;0.73;;;11.20;99.90;;;;;;5016114;28;20025;-82
2021/05/14 07:09:13;;;;;;;3.20;0.70;;;11.40;99.90;;;;;;5015839;28;20030;-83
2021/05/14 07:11:39;;;;;;;1.83;0.77;;;11.60;99.90;;;;;;5016864;28;20031;-83
2021/05/14 07:14:05;;;;;;;2.03;0.63;;;11.70;99.90;;;;;;5015521;28;20022;-84
2021/05/14 07:16:31;;;;;;;2.75;0.65;;;11.80;99.90;;;;;;5017817;28;20148;-84
2021/05/14 07:18:57;;;;;;;1.33;0.90;;;11.90;99.90;;;;;;5016707;28;20033;-82
2021/05/14 07:21:23;;;;;;;4.45;0.90;;;12.00;99.90;;;;;;5015397;28;20022;-82
2021/05/14 07:23:48;;;;;;;0.77;0.43;;;12.20;99.90;;;;;;5015271;28;20034;-82
2021/05/14 07:26:16;;;;;;;2.53;0.65;;;12.20;99.90;;;;;;5015219;28;20033;-82
2021/05/14 07:28:42;;;;;;;1.17;0.50;;;12.20;99.90;;;;;;5015229;28;20026;-82
2021/05/14 07:31:07;;;;;;;2.05;0.70;;;12.40;99.90;;;;;;5015244;28;20026;-82
2021/05/14 07:33:35;;;;;;;2.10;0.52;;;12.50;99.90;;;;;;5015054;28;20029;-82
2021/05/14 07:36:01;;;;;;;4.50;0.70;;;12.50;99.90;;;;;;5016686;28;20524;-81
2021/05/14 07:38:26;;;;;;;1.27;0.60;;;12.50;99.90;;;;;;5015081;28;20058;-82
2021/05/14 07:40:52;;;;;;;26.85;2.47;;;12.60;99.90;;;;;;5014956;28;20041;-82
2021/05/14 07:43:18;;;;;;;4.72;0.70;;;12.70;99.90;;;;;;5014942;28;20627;-81
2021/05/14 07:45:43;;;;;;;1.17;0.50;;;12.80;99.90;;;;;;5016065;28;20481;-82
2021/05/14 07:48:20;;;;;;;1.38;0.45;;;12.80;99.90;;;;;;5014802;28;20021;-82
2021/05/14 07:50:46;;;;;;;2.25;0.73;;;13.00;99.90;;;;;;5037973;28;20090;-82
2021/05/14 07:53:12;;;;;;;2.03;0.50;;;13.10;99.90;;;;;;5055725;28;20028;-82
2021/05/14 07:55:38;;;;;;;2.25;0.60;;;13.20;99.90;;;;;;5037700;28;20029;-82
2021/05/14 07:58:03;;;;;;;1.60;0.57;;;13.20;99.90;;;;;;5055997;28;20025;-82
2021/05/14 08:00:29;;;;;;;1.20;0.40;;;13.50;99.90;;;;;;5055611;28;20047;-83
2021/05/14 08:02:55;;;;;;;1.40;0.60;;;13.60;99.90;;;;;;5055847;28;20033;-82
2021/05/14 08:05:20;;;;;;;2.58;0.60;;;13.70;99.90;;;;;;5055569;28;20088;-82
2021/05/14 08:07:59;;;;;;;4.82;0.55;;;13.90;99.90;;;;;;5037584;28;20021;-82
2021/05/14 08:10:24;;;;;;;0.43;0.20;;;13.90;99.90;;;;;;5037620;28;20078;-82
2021/05/14 08:12:50;;;;;;;1.33;0.60;;;14.10;99.90;;;;;;5037519;28;20021;-82
2021/05/14 08:15:16;;;;;;;2.08;0.50;;;14.10;99.90;;;;;;5037336;28;20031;-83
2021/05/14 08:17:41;;;;;;;3.40;0.50;;;13.90;99.90;;;;;;5055307;28;20107;-83
2021/05/14 08:20:09;;;;;;;1.23;0.38;;;14.20;99.90;;;;;;5055512;28;20028;-82
2021/05/14 08:22:34;;;;;;;3.30;0.43;;;14.40;99.90;;;;;;5037294;28;20021;-82
2021/05/14 08:25:00;;;;;;;1.45;0.47;;;14.50;99.90;;;;;;5055322;28;20487;-83
2021/05/14 08:27:26;;;;;;;2.80;0.50;;;14.50;99.90;;;;;;5037221;28;20366;-83
2021/05/14 08:29:51;;;;;;;1.73;0.50;;;14.50;99.90;;;;;;5055035;28;20455;-83
2021/05/14 08:32:17;;;;;;;2.47;0.40;;;14.30;99.90;;;;;;5054969;28;20377;-83
2021/05/14 08:34:43;;;;;;;3.40;0.70;;;14.20;99.90;;;;;;5037088;28;20044;-83
2021/05/14 08:37:08;;;;;;;2.10;0.50;;;14.10;99.90;;;;;;5054876;28;20166;-83
2021/05/14 08:39:34;;;;;;;1.05;0.50;;;14.10;99.90;;;;;;5037064;28;20028;-83
2021/05/14 08:42:02;;;;;;;1.67;0.50;;;14.20;99.90;;;;;;5036953;28;20025;-83
2021/05/14 08:44:28;;;;;;;1.90;0.60;;;14.60;99.90;;;;;;5054713;28;20413;-82
2021/05/14 08:46:54;;;;;;;1.92;0.40;;;15.00;99.90;;;;;;5054605;28;20060;-82
2021/05/14 08:49:20;;;;;;;4.30;0.60;;;15.30;99.90;;;;;;5054560;28;20052;-83
2021/05/14 08:51:46;;;;;;;4.45;0.55;;;15.50;99.90;;;;;;5036610;28;20025;-83
2021/05/14 08:54:11;;;;;;;1.30;0.47;;;15.30;99.90;;;;;;5036617;28;20472;-83
2021/05/14 08:56:37;;;;;;;0.95;0.20;;;15.00;99.90;;;;;;5036705;28;20067;-83
2021/05/14 08:59:03;;;;;;;3.63;0.50;;;14.80;99.90;;;;;;5054449;28;20032;-83
2021/05/14 09:01:29;;;;;;;5.43;0.47;;;14.80;99.90;;;;;;5054657;28;20032;-84
2021/05/14 09:04:10;;;;;;;1.55;0.43;;;14.70;99.90;;;;;;5036404;28;20058;-83
2021/05/14 09:06:41;;;;;;;2.60;0.63;;;14.70;99.90;;;;;;5036376;28;20025;-83
2021/05/14 09:09:09;;;;;;;0.95;0.40;;;14.70;99.90;;;;;;5036360;28;20484;-82
2021/05/14 09:11:41;;;;;;;1.75;0.38;;;14.60;99.90;;;;;;5054202;28;20041;-83
2021/05/14 09:14:28;;;;;;;1.83;0.60;;;14.50;99.90;;;;;;5054373;28;20029;-83
2021/05/14 09:16:53;;;;;;;1.90;0.50;;;14.50;99.90;;;;;;5035491;28;20074;-83
2021/05/14 09:19:32;;;;;;;1.27;0.47;;;14.50;99.90;;;;;;5036398;28;20104;-83
2021/05/14 09:22:18;;;;;;;2.40;0.50;;;14.70;99.90;;;;;;5036252;28;20032;-83
2021/05/14 09:24:49;;;;;;;3.08;0.60;;;14.70;99.90;;;;;;5053999;28;20020;-83
2021/05/14 09:27:27;;;;;;;1.45;0.68;;;14.70;99.90;;;;;;5053975;28;20044;-83
2021/05/14 09:29:53;;;;;;;3.83;0.98;;;14.70;99.90;;;;;;5053870;28;20021;-83
2021/05/14 09:32:30;;;;;;;2.85;0.63;;;15.20;99.90;;;;;;5035951;28;20028;-83
2021/05/14 09:34:58;;;;;;;2.35;0.70;;;15.90;99.90;;;;;;5036020;28;20052;-83
2021/05/14 09:37:26;;;;;;;2.42;0.50;;;15.80;99.90;;;;;;5035865;28;20025;-83
2021/05/14 09:40:13;;;;;;;1.15;0.45;;;16.10;99.90;;;;;;5053648;28;20100;-83
2021/05/14 09:42:39;;;;;;;3.03;0.60;;;16.70;99.90;;;;;;5035745;28;20033;-83
2021/05/14 09:45:17;;;;;;;2.45;0.57;;;16.70;99.90;;;;;;5053498;28;20037;-82
2021/05/14 09:47:43;;;;;;;1.35;0.60;;;16.20;99.90;;;;;;5035650;28;20472;-83
2021/05/14 09:50:29;;;;;;;1.60;0.60;;;15.80;99.90;;;;;;5053380;28;20095;-83
2021/05/14 09:53:08;;;;;;;2.15;0.68;;;15.40;99.90;;;;;;5035965;28;20033;-83
2021/05/14 09:55:36;;;;;;;1.92;0.40;;;15.00;99.90;;;;;;5055491;28;20449;-83
2021/05/14 09:58:15;;;;;;;1.23;0.50;;;14.70;99.90;;;;;;5053472;28;20044;-84
2021/05/14 10:00:41;;;;;;;2.83;0.80;;;14.50;99.90;;;;;;5035560;28;20057;-84
2021/05/14 10:03:09;;;;;;;3.35;0.50;;;14.40;99.90;;;;;;5053359;28;20100;-84
2021/05/14 10:05:37;;;;;;;5.35;0.50;;;14.30;99.90;;;;;;5035416;28;20116;-84
2021/05/14 10:08:04;;;;;;;2.38;0.90;;;14.30;99.90;;;;;;5035456;28;20028;-84
2021/05/14 10:10:33;;;;;;;2.58;0.43;;;14.20;99.90;;;;;;5018935;28;20056;-84
2021/05/14 10:12:59;;;;;;;2.00;0.57;;;14.20;99.90;;;;;;5053579;28;20021;-84
2021/05/14 10:15:26;;;;;;;2.70;0.60;;;14.30;99.90;;;;;;5053523;28;20103;-84
2021/05/14 10:17:52;;;;;;;1.85;0.70;;;14.80;99.90;;;;;;5035355;28;20038;-84
2021/05/14 10:20:23;;;;;;;2.88;0.55;;;14.80;99.90;;;;;;5035274;28;20063;-84
2021/05/14 10:22:52;;;;;;;4.53;1.70;;;15.60;99.90;;;;;;5035406;28;20075;-84
2021/05/14 10:25:39;;;;;;;3.38;0.70;;;16.60;99.90;;;;;;5035502;28;20116;-84
2021/05/14 10:28:14;;;;;;;2.38;0.57;;;17.10;99.90;;;;;;5035226;28;20021;-84
2021/05/14 10:30:58;;;;;;;;;;;16.70;99.90;;;;;;5057146;28;20079;-84
2021/05/14 10:33:40;;;;;;;2.28;0.70;;;16.10;99.90;;;;;;5057205;28;19904;-84
2021/05/14 10:36:32;;;;;;;3.25;0.47;;;15.80;99.90;;;;;;5039259;28;20063;-84
2021/05/14 10:39:04;;;;;;;1.38;0.45;;;16.00;99.90;;;;;;5049190;28;20043;-83
2021/05/14 10:41:30;;;;;;;3.13;0.57;;;17.20;99.90;;;;;;5039192;28;20032;-84
2021/05/14 10:44:07;;;;;;;1.63;0.50;;;16.90;99.90;;;;;;5057035;28;20468;-84
2021/05/14 10:46:33;;;;;;;1.90;0.50;;;16.40;99.90;;;;;;5038986;28;20031;-84
2021/05/14 10:49:13;;;;;;;1.27;0.30;;;16.10;99.90;;;;;;5056785;28;20123;-84
2021/05/14 10:51:49;;;;;;;1.45;0.68;;;15.80;99.90;;;;;;5039113;28;20024;-84
2021/05/14 10:54:50;;;;;;;2.30;0.40;;;15.70;99.90;;;;;;5056913;28;20025;-84
2021/05/14 10:57:40;;;;;;;1.88;0.70;;;15.40;99.90;;;;;;4979250;28;20026;-84
2021/05/14 11:00:28;;;;;;;2.45;0.50;;;15.30;99.90;;;;;;5037960;28;20480;-84
2021/05/14 11:03:19;;;;;;;1.38;0.32;;;15.30;99.90;;;;;;5056969;28;20032;-84
2021/05/14 11:12:36;;;;;;;3.03;0.82;;;16.00;99.90;;;;;;5011508;28;20027;-85
2021/05/14 11:15:02;;;;;;;3.75;0.47;;;16.00;99.90;;;;;;5056473;28;20532;-84
2021/05/14 11:17:27;;;;;;;1.15;0.40;;;15.90;99.90;;;;;;5038456;28;20477;-84
2021/05/14 11:19:54;;;;;;;3.95;0.55;;;15.80;99.90;;;;;;5038505;28;20017;-85
2021/05/14 11:22:23;;;;;;;1.80;0.40;;;15.90;99.90;;;;;;5038381;28;20024;-85
2021/05/14 11:25:01;;;;;;;1.88;0.55;;;16.10;99.90;;;;;;5038356;28;20087;-85
2021/05/14 11:27:32;;;;;;;1.77;0.50;;;16.90;99.90;;;;;;5038335;28;20029;-84
2021/05/14 11:29:59;;;;;;;2.47;0.50;;;;;;;;;;5038323;28;20051;-84
2021/05/14 11:32:28;;;;;;;3.15;0.95;;;19.30;99.70;;;;;;5038271;28;20472;-85
2021/05/14 11:34:54;;;;;;;1.63;0.40;;;19.90;98.70;;;;;;5038094;28;20024;-85
2021/05/14 11:37:39;;;;;;;0.65;0.30;;;20.20;96.90;;;;;;5038208;28;20029;-85
2021/05/14 11:40:08;;;;;;;2.28;0.38;;;18.80;98.20;;;;;;5037639;28;20074;-84
2021/05/14 11:42:43;;;;;;;2.58;0.60;;;18.10;99.10;;;;;;5038338;28;20060;-85
2021/05/14 11:45:11;;;;;;;1.80;0.40;;;17.60;99.90;;;;;;5038474;28;20489;-84
2021/05/14 11:47:43;;;;;;;0.90;0.30;;;17.00;99.60;;;;;;5037966;28;20094;-85
2021/05/14 11:50:09;;;;;;;1.45;0.40;;;16.50;99.90;;;;;;5037918;28;20053;-85
2021/05/14 11:52:42;;;;;;;1.63;0.50;;;16.30;99.90;;;;;;5055749;28;20021;-85
2021/05/14 11:55:14;;;;;;;2.35;0.43;;;16.10;99.90;;;;;;5037755;28;20021;-85
2021/05/14 11:57:45;;;;;;;1.60;0.50;;;16.60;99.90;;;;;;5037577;28;20396;-85
2021/05/14 12:00:11;;;;;;;2.30;0.40;;;18.40;99.90;;;;;;5037429;28;20528;-85
2021/05/14 12:02:46;;;;;;;1.98;0.40;;;19.50;96.10;;;;;;5037555;28;20029;-84
2021/05/14 12:05:14;;;;;;;2.72;0.30;;;20.10;93.90;;;;;;5055413;28;20387;-85
2021/05/14 12:07:42;;;;;;;0.80;0.40;;;19.40;93.50;;;;;;5037509;28;20423;-85
2021/05/14 12:10:11;;;;;;;1.35;0.30;;;18.50;94.70;;;;;;5055711;28;20023;-84
2021/05/14 12:12:38;;;;;;;0.93;0.40;;;18.40;99.90;;;;;;5055207;28;20165;-84
2021/05/14 12:15:22;;;;;;;2.97;0.60;;;19.70;99.90;;;;;;5055317;28;20025;-84
2021/05/14 12:17:57;;;;;;;3.95;0.38;;;20.00;99.90;;;;;;5055294;28;20476;-84
2021/05/14 12:20:28;;;;;;;1.80;0.30;;;20.40;99.90;;;;;;5055539;28;20358;-85
2021/05/14 12:22:56;;;;;;;1.48;0.40;;;;;;;;;;5037278;28;20135;-84
2021/05/14 12:25:22;;;;;;;1.30;0.40;;;21.60;99.90;;;;;;5037136;28;20028;-85
2021/05/14 12:27:49;;;;;;;3.00;0.38;;;21.20;90.10;;;;;;5054982;28;20489;-84
2021/05/14 12:30:18;;;;;;;1.60;0.40;;;20.20;87.50;;;;;;5055075;28;20013;-84
2021/05/14 12:32:55;;;;;;;1.40;0.68;;;19.30;90.70;;;;;;5055009;28;20019;-84
2021/05/14 12:35:22;;;;;;;0.45;0.20;;;18.70;92.50;;;;;;5055147;28;20396;-85
2021/05/14 12:37:55;;;;;;;1.17;0.40;;;18.30;92.10;;;;;;5036972;28;20032;-84
2021/05/14 12:40:34;;;;;;;4.60;0.65;;;19.00;91.90;;;;;;5038933;28;20036;-88
2021/05/14 12:43:05;;;;;;;1.20;0.35;;;;;;;;;;5039900;28;20052;-83
2021/05/14 12:45:33;;;;;;;3.45;0.60;;;21.20;99.90;;;;;;5036809;28;20138;-83
2021/05/14 12:48:00;;;;;;;1.00;0.50;;;;;;;;;;5036818;28;20021;-83
2021/05/14 12:50:26;;;;;;;3.70;0.43;;;20.90;99.90;;;;;;5036505;28;20056;-86
2021/05/14 12:52:52;;;;;;;1.15;0.40;;;20.10;99.90;;;;;;5035791;28;20032;-82
2021/05/14 12:55:20;;;;;;;1.90;0.38;;;17.40;90.70;;;;;;5036705;28;20025;-83
2021/05/14 12:58:01;;;;;;;3.30;0.45;;;19.00;91.90;;;;;;5036605;28;20052;-83
2021/05/14 13:00:29;;;;;;;1.30;0.40;;;18.80;92.70;;;;;;5054727;28;20472;-83
2021/05/14 13:03:00;;;;;;;2.13;0.43;;;18.90;90.60;;;;;;5036520;28;20025;-83
2021/05/14 13:05:47;;;;;;;2.13;0.55;;;20.80;90.50;;;;;;5036380;28;20025;-82
2021/05/14 13:08:20;;;;;;;1.15;0.30;;;22.00;99.80;;;;;;5054750;28;20037;-83